sensor_id;sensor_type;location;lat;lon;timestamp;pressure;altitude;pressure_sealevel;temperature;humidity
3122;BME280;1571;52.524;14.104;2022-09-09T00:01:50;100926.78;;;14.90;100.00
3122;BME280;1571;52.524;14.104;2022-09-09T00:04:26;100923.16;;;14.80;100.00
3122;BME280;1571;52.524;14.104;2022-09-09T00:07:03;100925.78;;;14.68;100.00
3122;BME280;1571;52.524;14.104;2022-09-09T00:09:38;100919.22;;;14.72;100.00
3122;BME280;1571;52.524;14.104;2022-09-09T00:12:11;100911.72;;;14.77;100.00
3122;BME280;1571;52.524;14.104;2022-09-09T00:14:47;100906.94;;;14.70;100.00
3122;BME280;1571;52.524;14.104;2022-09-09T00:17:24;100899.28;;;14.65;100.00
3122;BME280;1571;52.524;14.104;2022-09-09T00:20:00;100891.53;;;14.62;100.00
3122;BME280;1571;52.524;14.104;2022-09-09T00:22:30;100881.72;;;14.50;100.00
3122;BME280;1571;52.524;14.104;2022-09-09T00:25:10;100870.06;;;14.40;100.00
3122;BME280;1571;52.524;14.104;2022-09-09T00:27:41;100873.00;;;14.48;100.00
3122;BME280;1571;52.524;14.104;2022-09-09T00:30:15;100865.59;;;14.51;100.00
3122;BME280;1571;52.524;14.104;2022-09-09T00:32:47;100861.69;;;14.44;100.00
3122;BME280;1571;52.524;14.104;2022-09-09T00:35:21;100855.28;;;14.47;100.00
3122;BME280;1571;52.524;14.104;2022-09-09T00:37:53;100848.44;;;14.31;100.00
3122;BME280;1571;52.524;14.104;2022-09-09T00:40:26;100844.28;;;14.27;100.00
3122;BME280;1571;52.524;14.104;2022-09-09T00:43:25;100842.97;;;14.33;100.00
3122;BME280;1571;52.524;14.104;2022-09-09T00:49:02;100816.59;;;14.17;100.00
3122;BME280;1571;52.524;14.104;2022-09-09T00:51:44;100804.91;;;14.07;100.00
3122;BME280;1571;52.524;14.104;2022-09-09T00:54:27;100802.59;;;14.02;100.00
3122;BME280;1571;52.524;14.104;2022-09-09T00:57:10;100791.81;;;14.04;100.00
3122;BME280;1571;52.524;14.104;2022-09-09T00:59:46;100792.53;;;14.06;100.00
3122;BME280;1571;52.524;14.104;2022-09-09T01:02:24;100783.81;;;14.04;100.00
3122;BME280;1571;52.524;14.104;2022-09-09T01:05:00;100772.84;;;13.95;100.00
3122;BME280;1571;52.524;14.104;2022-09-09T01:07:34;100777.44;;;13.93;100.00
3122;BME280;1571;52.524;14.104;2022-09-09T01:10:07;100768.94;;;13.88;100.00
3122;BME280;1571;52.524;14.104;2022-09-09T01:12:41;100771.19;;;14.06;100.00
3122;BME280;1571;52.524;14.104;2022-09-09T01:15:19;100765.13;;;14.04;100.00
3122;BME280;1571;52.524;14.104;2022-09-09T01:17:58;100758.03;;;13.91;100.00
3122;BME280;1571;52.524;14.104;2022-09-09T01:20:39;100766.03;;;13.91;100.00
3122;BME280;1571;52.524;14.104;2022-09-09T01:23:33;100765.53;;;13.86;100.00
3122;BME280;1571;52.524;14.104;2022-09-09T01:26:18;100770.91;;;13.98;100.00
3122;BME280;1571;52.524;14.104;2022-09-09T01:28:51;100767.25;;;13.87;100.00
3122;BME280;1571;52.524;14.104;2022-09-09T01:31:30;100769.19;;;13.85;100.00
3122;BME280;1571;52.524;14.104;2022-09-09T01:34:00;100767.03;;;14.02;100.00
3122;BME280;1571;52.524;14.104;2022-09-09T01:36:33;100767.25;;;13.87;100.00
3122;BME280;1571;52.524;14.104;2022-09-09T01:39:03;100761.41;;;13.82;100.00
3122;BME280;1571;52.524;14.104;2022-09-09T01:41:34;100757.28;;;13.78;100.00
3122;BME280;1571;52.524;14.104;2022-09-09T01:44:07;100749.00;;;13.70;100.00
3122;BME280;1571;52.524;14.104;2022-09-09T01:46:38;100754.56;;;13.67;100.00
3122;BME280;1571;52.524;14.104;2022-09-09T01:49:13;100743.97;;;13.54;100.00
3122;BME280;1571;52.524;14.104;2022-09-09T01:51:42;100740.66;;;13.50;100.00
3122;BME280;1571;52.524;14.104;2022-09-09T01:54:13;100738.81;;;13.40;100.00
3122;BME280;1571;52.524;14.104;2022-09-09T01:56:50;100723.13;;;13.35;100.00
3122;BME280;1571;52.524;14.104;2022-09-09T01:59:31;100731.66;;;13.40;100.00
3122;BME280;1571;52.524;14.104;2022-09-09T02:02:09;100726.25;;;13.53;100.00
3122;BME280;1571;52.524;14.104;2022-09-09T02:04:47;100718.53;;;13.37;100.00
3122;BME280;1571;52.524;14.104;2022-09-09T02:07:37;100711.88;;;13.19;100.00
3122;BME280;1571;52.524;14.104;2022-09-09T02:10:17;100713.47;;;13.21;100.00
3122;BME280;1571;52.524;14.104;2022-09-09T02:13:03;100718.19;;;13.18;100.00
3122;BME280;1571;52.524;14.104;2022-09-09T02:15:38;100713.19;;;13.13;100.00
3122;BME280;1571;52.524;14.104;2022-09-09T02:18:12;100699.28;;;12.97;100.00
3122;BME280;1571;52.524;14.104;2022-09-09T02:20:43;100700.91;;;12.99;100.00
3122;BME280;1571;52.524;14.104;2022-09-09T02:23:12;100701.91;;;13.09;100.00
3122;BME280;1571;52.524;14.104;2022-09-09T02:25:45;100687.44;;;13.01;100.00
3122;BME280;1571;52.524;14.104;2022-09-09T02:28:24;100690.00;;;13.02;100.00
3122;BME280;1571;52.524;14.104;2022-09-09T02:30:53;100692.31;;;13.07;100.00
3122;BME280;1571;52.524;14.104;2022-09-09T02:33:34;100681.69;;;12.94;100.00
3122;BME280;1571;52.524;14.104;2022-09-09T02:36:05;100690.00;;;13.02;100.00
3122;BME280;1571;52.524;14.104;2022-09-09T02:38:38;100686.19;;;12.94;100.00
3122;BME280;1571;52.524;14.104;2022-09-09T02:41:12;100690.22;;;12.99;100.00
3122;BME280;1571;52.524;14.104;2022-09-09T02:43:42;100692.66;;;13.02;100.00
3122;BME280;1571;52.524;14.104;2022-09-09T02:46:27;100695.56;;;12.99;100.00
3122;BME280;1571;52.524;14.104;2022-09-09T02:49:03;100700.69;;;12.89;100.00
3122;BME280;1571;52.524;14.104;2022-09-09T02:51:45;100689.69;;;12.94;100.00
3122;BME280;1571;52.524;14.104;2022-09-09T02:54:23;100692.72;;;13.13;100.00
3122;BME280;1571;52.524;14.104;2022-09-09T02:56:55;100689.56;;;12.71;100.00
3122;BME280;1571;52.524;14.104;2022-09-09T02:59:33;100698.22;;;12.62;100.00
3122;BME280;1571;52.524;14.104;2022-09-09T03:02:02;100699.69;;;12.66;100.00
3122;BME280;1571;52.524;14.104;2022-09-09T03:04:31;100693.31;;;12.56;100.00
3122;BME280;1571;52.524;14.104;2022-09-09T03:07:00;100698.25;;;12.37;100.00
3122;BME280;1571;52.524;14.104;2022-09-09T03:09:31;100698.47;;;12.34;100.00
3122;BME280;1571;52.524;14.104;2022-09-09T03:12:00;100713.41;;;12.36;100.00
3122;BME280;1571;52.524;14.104;2022-09-09T03:14:30;100710.34;;;12.66;100.00
3122;BME280;1571;52.524;14.104;2022-09-09T03:17:01;100710.38;;;12.54;100.00
3122;BME280;1571;52.524;14.104;2022-09-09T03:19:35;100713.34;;;12.49;100.00
3122;BME280;1571;52.524;14.104;2022-09-09T03:22:08;100714.00;;;12.40;100.00
3122;BME280;1571;52.524;14.104;2022-09-09T03:24:40;100720.09;;;12.42;100.00
3122;BME280;1571;52.524;14.104;2022-09-09T03:27:08;100720.81;;;12.44;100.00
3122;BME280;1571;52.524;14.104;2022-09-09T03:29:38;100717.00;;;12.48;100.00
3122;BME280;1571;52.524;14.104;2022-09-09T03:32:12;100712.41;;;12.50;100.00
3122;BME280;1571;52.524;14.104;2022-09-09T03:34:44;100711.84;;;12.58;100.00
3122;BME280;1571;52.524;14.104;2022-09-09T03:37:14;100710.59;;;12.63;100.00
3122;BME280;1571;52.524;14.104;2022-09-09T03:39:42;100712.69;;;12.58;100.00
3122;BME280;1571;52.524;14.104;2022-09-09T03:42:12;100711.00;;;12.57;100.00
3122;BME280;1571;52.524;14.104;2022-09-09T03:44:41;100710.69;;;12.62;100.00
3122;BME280;1571;52.524;14.104;2022-09-09T03:47:10;100719.75;;;12.59;100.00
3122;BME280;1571;52.524;14.104;2022-09-09T03:49:40;100706.53;;;12.45;100.00
3122;BME280;1571;52.524;14.104;2022-09-09T03:52:09;100701.44;;;12.42;100.00
3122;BME280;1571;52.524;14.104;2022-09-09T03:54:38;100708.03;;;12.49;100.00
3122;BME280;1571;52.524;14.104;2022-09-09T03:57:06;100686.53;;;12.52;100.00
3122;BME280;1571;52.524;14.104;2022-09-09T03:59:35;100703.16;;;12.43;100.00
3122;BME280;1571;52.524;14.104;2022-09-09T04:02:03;100687.47;;;12.64;100.00
3122;BME280;1571;52.524;14.104;2022-09-09T04:04:32;100697.28;;;12.50;100.00
3122;BME280;1571;52.524;14.104;2022-09-09T04:07:02;100698.22;;;12.49;100.00
3122;BME280;1571;52.524;14.104;2022-09-09T04:09:33;100722.09;;;12.64;100.00
3122;BME280;1571;52.524;14.104;2022-09-09T04:12:02;100726.75;;;12.60;100.00
3122;BME280;1571;52.524;14.104;2022-09-09T04:14:31;100725.28;;;12.56;100.00
3122;BME280;1571;52.524;14.104;2022-09-09T04:16:59;100733.69;;;12.63;100.00
3122;BME280;1571;52.524;14.104;2022-09-09T04:19:28;100735.69;;;12.72;100.00
3122;BME280;1571;52.524;14.104;2022-09-09T04:21:56;100733.56;;;12.64;100.00
3122;BME280;1571;52.524;14.104;2022-09-09T04:24:25;100724.09;;;12.60;100.00
3122;BME280;1571;52.524;14.104;2022-09-09T04:26:56;100722.00;;;12.53;100.00
3122;BME280;1571;52.524;14.104;2022-09-09T04:29:25;100718.91;;;12.59;100.00
3122;BME280;1571;52.524;14.104;2022-09-09T04:31:53;100718.06;;;12.33;100.00
3122;BME280;1571;52.524;14.104;2022-09-09T04:34:21;100713.59;;;12.33;100.00
3122;BME280;1571;52.524;14.104;2022-09-09T04:36:49;100709.97;;;12.21;100.00
3122;BME280;1571;52.524;14.104;2022-09-09T04:39:18;100718.16;;;12.31;100.00
3122;BME280;1571;52.524;14.104;2022-09-09T04:41:49;100709.84;;;12.36;100.00
3122;BME280;1571;52.524;14.104;2022-09-09T04:44:18;100709.66;;;12.26;100.00
3122;BME280;1571;52.524;14.104;2022-09-09T04:46:46;100698.16;;;12.25;100.00
3122;BME280;1571;52.524;14.104;2022-09-09T04:49:14;100694.34;;;12.29;100.00
3122;BME280;1571;52.524;14.104;2022-09-09T04:51:43;100699.34;;;12.34;100.00
3122;BME280;1571;52.524;14.104;2022-09-09T04:54:12;100710.19;;;12.44;100.00
3122;BME280;1571;52.524;14.104;2022-09-09T04:56:42;100718.34;;;12.54;100.00
3122;BME280;1571;52.524;14.104;2022-09-09T04:59:12;100715.28;;;12.47;100.00
3122;BME280;1571;52.524;14.104;2022-09-09T05:01:47;100717.09;;;12.59;100.00
3122;BME280;1571;52.524;14.104;2022-09-09T05:04:15;100710.44;;;12.78;100.00
3122;BME280;1571;52.524;14.104;2022-09-09T05:06:43;100713.75;;;12.81;100.00
3122;BME280;1571;52.524;14.104;2022-09-09T05:09:13;100705.47;;;12.97;100.00
3122;BME280;1571;52.524;14.104;2022-09-09T05:11:43;100702.97;;;13.07;100.00
3122;BME280;1571;52.524;14.104;2022-09-09T05:14:29;100699.28;;;13.21;100.00
3122;BME280;1571;52.524;14.104;2022-09-09T05:17:00;100696.13;;;13.16;100.00
3122;BME280;1571;52.524;14.104;2022-09-09T05:19:28;100693.44;;;13.28;100.00
3122;BME280;1571;52.524;14.104;2022-09-09T05:21:58;100690.44;;;13.33;100.00
3122;BME280;1571;52.524;14.104;2022-09-09T05:24:34;100690.94;;;13.38;100.00
3122;BME280;1571;52.524;14.104;2022-09-09T05:27:04;100689.53;;;13.57;100.00
3122;BME280;1571;52.524;14.104;2022-09-09T05:29:34;100688.44;;;13.59;100.00
3122;BME280;1571;52.524;14.104;2022-09-09T05:32:04;100684.38;;;13.78;100.00
3122;BME280;1571;52.524;14.104;2022-09-09T05:34:35;100691.66;;;13.87;100.00
3122;BME280;1571;52.524;14.104;2022-09-09T05:37:04;100696.31;;;13.96;100.00
3122;BME280;1571;52.524;14.104;2022-09-09T05:39:34;100701.53;;;14.09;100.00
3122;BME280;1571;52.524;14.104;2022-09-09T05:42:04;100705.56;;;14.14;100.00
3122;BME280;1571;52.524;14.104;2022-09-09T05:44:34;100699.03;;;14.30;100.00
3122;BME280;1571;52.524;14.104;2022-09-09T05:47:03;100703.75;;;14.26;100.00
3122;BME280;1571;52.524;14.104;2022-09-09T05:49:31;100697.56;;;14.26;100.00
3122;BME280;1571;52.524;14.104;2022-09-09T05:52:00;100699.66;;;14.56;100.00
3122;BME280;1571;52.524;14.104;2022-09-09T05:54:30;100705.22;;;14.53;100.00
3122;BME280;1571;52.524;14.104;2022-09-09T05:57:00;100694.91;;;14.71;100.00
3122;BME280;1571;52.524;14.104;2022-09-09T05:59:28;100698.88;;;14.54;100.00
3122;BME280;1571;52.524;14.104;2022-09-09T06:02:01;100700.00;;;14.63;100.00
3122;BME280;1571;52.524;14.104;2022-09-09T06:04:34;100688.94;;;14.78;100.00
3122;BME280;1571;52.524;14.104;2022-09-09T06:07:04;100690.88;;;14.76;100.00
3122;BME280;1571;52.524;14.104;2022-09-09T06:09:32;100678.69;;;14.95;100.00
3122;BME280;1571;52.524;14.104;2022-09-09T06:12:01;100685.44;;;15.10;100.00
3122;BME280;1571;52.524;14.104;2022-09-09T06:14:32;100684.00;;;15.06;100.00
3122;BME280;1571;52.524;14.104;2022-09-09T06:17:03;100670.13;;;15.12;100.00
3122;BME280;1571;52.524;14.104;2022-09-09T06:19:32;100674.16;;;15.39;100.00
3122;BME280;1571;52.524;14.104;2022-09-09T06:22:01;100668.69;;;15.40;100.00
3122;BME280;1571;52.524;14.104;2022-09-09T06:24:33;100670.03;;;15.35;100.00
3122;BME280;1571;52.524;14.104;2022-09-09T06:27:03;100670.97;;;15.45;100.00
3122;BME280;1571;52.524;14.104;2022-09-09T06:29:34;100669.38;;;15.54;100.00
3122;BME280;1571;52.524;14.104;2022-09-09T06:32:04;100666.00;;;15.73;100.00
3122;BME280;1571;52.524;14.104;2022-09-09T06:34:32;100656.34;;;15.81;100.00
3122;BME280;1571;52.524;14.104;2022-09-09T06:37:00;100663.41;;;15.50;100.00
3122;BME280;1571;52.524;14.104;2022-09-09T06:39:43;100654.25;;;15.85;100.00
3122;BME280;1571;52.524;14.104;2022-09-09T06:42:11;100657.78;;;15.86;100.00
3122;BME280;1571;52.524;14.104;2022-09-09T06:44:55;100654.41;;;15.93;100.00
3122;BME280;1571;52.524;14.104;2022-09-09T06:47:35;100650.31;;;15.89;100.00
3122;BME280;1571;52.524;14.104;2022-09-09T06:50:05;100649.97;;;16.03;100.00
3122;BME280;1571;52.524;14.104;2022-09-09T06:52:35;100652.56;;;16.15;100.00
3122;BME280;1571;52.524;14.104;2022-09-09T06:55:05;100650.81;;;16.04;100.00
3122;BME280;1571;52.524;14.104;2022-09-09T06:57:34;100637.16;;;16.38;100.00
3122;BME280;1571;52.524;14.104;2022-09-09T07:00:08;100639.84;;;16.48;100.00
3122;BME280;1571;52.524;14.104;2022-09-09T07:02:40;100639.69;;;16.39;100.00
3122;BME280;1571;52.524;14.104;2022-09-09T07:05:10;100634.25;;;16.70;100.00
3122;BME280;1571;52.524;14.104;2022-09-09T07:07:40;100629.84;;;16.50;100.00
3122;BME280;1571;52.524;14.104;2022-09-09T07:10:10;100636.22;;;16.68;100.00
3122;BME280;1571;52.524;14.104;2022-09-09T07:12:39;100632.50;;;16.80;100.00
3122;BME280;1571;52.524;14.104;2022-09-09T07:15:10;100623.19;;;16.84;100.00
3122;BME280;1571;52.524;14.104;2022-09-09T07:17:44;100614.56;;;16.91;100.00
3122;BME280;1571;52.524;14.104;2022-09-09T07:20:14;100614.72;;;16.89;100.00
3122;BME280;1571;52.524;14.104;2022-09-09T07:22:43;100613.59;;;17.01;100.00
3122;BME280;1571;52.524;14.104;2022-09-09T07:25:12;100627.13;;;17.00;100.00
3122;BME280;1571;52.524;14.104;2022-09-09T07:27:41;100621.94;;;16.98;100.00
3122;BME280;1571;52.524;14.104;2022-09-09T07:30:10;100625.44;;;16.99;100.00
3122;BME280;1571;52.524;14.104;2022-09-09T07:32:50;100618.41;;;17.17;100.00
3122;BME280;1571;52.524;14.104;2022-09-09T07:35:19;100617.56;;;17.17;100.00
3122;BME280;1571;52.524;14.104;2022-09-09T07:37:48;100625.19;;;17.21;100.00
3122;BME280;1571;52.524;14.104;2022-09-09T07:40:19;100625.28;;;17.49;100.00
3122;BME280;1571;52.524;14.104;2022-09-09T07:42:49;100621.75;;;17.48;100.00
3122;BME280;1571;52.524;14.104;2022-09-09T07:45:17;100618.03;;;17.79;100.00
3122;BME280;1571;52.524;14.104;2022-09-09T07:47:47;100626.56;;;17.55;100.00
3122;BME280;1571;52.524;14.104;2022-09-09T07:50:17;100625.16;;;17.51;100.00
3122;BME280;1571;52.524;14.104;2022-09-09T07:52:45;100631.09;;;17.54;100.00
3122;BME280;1571;52.524;14.104;2022-09-09T07:55:14;100632.78;;;17.55;100.00
3122;BME280;1571;52.524;14.104;2022-09-09T07:57:43;100631.34;;;17.90;100.00
3122;BME280;1571;52.524;14.104;2022-09-09T08:00:14;100627.50;;;17.73;100.00
3122;BME280;1571;52.524;14.104;2022-09-09T08:02:50;100624.97;;;17.72;100.00
3122;BME280;1571;52.524;14.104;2022-09-09T08:05:21;100627.38;;;17.84;100.00
3122;BME280;1571;52.524;14.104;2022-09-09T08:07:50;100630.19;;;17.83;100.00
3122;BME280;1571;52.524;14.104;2022-09-09T08:10:19;100624.44;;;18.15;100.00
3122;BME280;1571;52.524;14.104;2022-09-09T08:12:49;100632.13;;;18.00;100.00
3122;BME280;1571;52.524;14.104;2022-09-09T08:15:37;100627.31;;;18.04;100.00
3122;BME280;1571;52.524;14.104;2022-09-09T08:18:08;100630.72;;;17.96;99.93
3122;BME280;1571;52.524;14.104;2022-09-09T08:20:37;100630.19;;;17.83;100.00
3122;BME280;1571;52.524;14.104;2022-09-09T08:23:06;100630.50;;;17.60;100.00
3122;BME280;1571;52.524;14.104;2022-09-09T08:25:35;100632.97;;;18.01;100.00
3122;BME280;1571;52.524;14.104;2022-09-09T08:28:03;100627.91;;;17.78;100.00
3122;BME280;1571;52.524;14.104;2022-09-09T08:30:32;100635.13;;;17.78;100.00
3122;BME280;1571;52.524;14.104;2022-09-09T08:33:00;100632.78;;;18.22;100.00
3122;BME280;1571;52.524;14.104;2022-09-09T08:35:30;100627.53;;;18.48;100.00
3122;BME280;1571;52.524;14.104;2022-09-09T08:37:59;100629.94;;;18.97;99.33
3122;BME280;1571;52.524;14.104;2022-09-09T08:40:35;100625.50;;;18.87;96.16
3122;BME280;1571;52.524;14.104;2022-09-09T08:43:06;100629.94;;;19.32;94.57
3122;BME280;1571;52.524;14.104;2022-09-09T08:45:37;100630.88;;;18.87;94.64
3122;BME280;1571;52.524;14.104;2022-09-09T08:48:28;100629.16;;;19.22;93.66
3122;BME280;1571;52.524;14.104;2022-09-09T08:51:00;100639.31;;;19.46;93.39
3122;BME280;1571;52.524;14.104;2022-09-09T08:53:38;100640.94;;;19.39;89.50
3122;BME280;1571;52.524;14.104;2022-09-09T08:56:12;100643.78;;;19.38;89.41
3122;BME280;1571;52.524;14.104;2022-09-09T08:58:48;100640.69;;;19.50;91.13
3122;BME280;1571;52.524;14.104;2022-09-09T09:01:30;100638.38;;;19.73;88.82
3122;BME280;1571;52.524;14.104;2022-09-09T09:04:26;100643.84;;;19.90;88.43
3122;BME280;1571;52.524;14.104;2022-09-09T09:07:13;100639.28;;;19.90;89.95
3122;BME280;1571;52.524;14.104;2022-09-09T09:09:54;100630.59;;;20.31;88.05
3122;BME280;1571;52.524;14.104;2022-09-09T09:12:29;100633.97;;;20.33;87.75
3122;BME280;1571;52.524;14.104;2022-09-09T09:15:00;100629.91;;;20.63;86.04
3122;BME280;1571;52.524;14.104;2022-09-09T09:17:37;100637.50;;;20.68;86.12
3122;BME280;1571;52.524;14.104;2022-09-09T09:20:12;100631.78;;;20.71;84.07
3122;BME280;1571;52.524;14.104;2022-09-09T09:22:48;100637.69;;;20.74;83.85
3122;BME280;1571;52.524;14.104;2022-09-09T09:25:20;100637.47;;;20.59;83.64
3122;BME280;1571;52.524;14.104;2022-09-09T09:27:57;100636.72;;;20.41;83.11
3122;BME280;1571;52.524;14.104;2022-09-09T09:30:34;100628.84;;;20.56;85.14
3122;BME280;1571;52.524;14.104;2022-09-09T09:33:13;100633.53;;;20.46;85.12
3122;BME280;1571;52.524;14.104;2022-09-09T09:35:44;100634.84;;;20.33;83.95
3122;BME280;1571;52.524;14.104;2022-09-09T09:38:19;100637.41;;;20.43;85.79
3122;BME280;1571;52.524;14.104;2022-09-09T09:41:09;100631.13;;;20.34;88.49
3122;BME280;1571;52.524;14.104;2022-09-09T09:43:40;100637.00;;;20.64;83.79
3122;BME280;1571;52.524;14.104;2022-09-09T09:46:24;100643.59;;;20.70;84.31
3122;BME280;1571;52.524;14.104;2022-09-09T09:48:59;100643.44;;;20.37;86.60
3122;BME280;1571;52.524;14.104;2022-09-09T09:51:29;100642.19;;;19.97;88.49
3122;BME280;1571;52.524;14.104;2022-09-09T09:54:14;100637.03;;;20.04;88.53
3122;BME280;1571;52.524;14.104;2022-09-09T09:56:51;100643.63;;;20.09;91.02
3122;BME280;1571;52.524;14.104;2022-09-09T09:59:22;100636.81;;;19.97;90.27
3122;BME280;1571;52.524;14.104;2022-09-09T10:02:17;100635.56;;;20.09;90.49
3122;BME280;1571;52.524;14.104;2022-09-09T10:05:00;100638.44;;;20.50;87.37
3122;BME280;1571;52.524;14.104;2022-09-09T10:07:31;100643.06;;;20.66;86.94
3122;BME280;1571;52.524;14.104;2022-09-09T10:10:01;100640.28;;;21.09;85.94
3122;BME280;1571;52.524;14.104;2022-09-09T10:12:41;100645.69;;;21.09;83.18
3122;BME280;1571;52.524;14.104;2022-09-09T10:15:36;100644.41;;;21.54;82.66
3122;BME280;1571;52.524;14.104;2022-09-09T10:21:11;100647.66;;;22.13;79.13
3122;BME280;1571;52.524;14.104;2022-09-09T10:23:56;100649.22;;;21.99;80.10
3122;BME280;1571;52.524;14.104;2022-09-09T10:26:38;100662.63;;;21.52;80.46
3122;BME280;1571;52.524;14.104;2022-09-09T10:29:23;100656.84;;;21.06;81.44
3122;BME280;1571;52.524;14.104;2022-09-09T10:32:04;100649.91;;;21.03;82.11
3122;BME280;1571;52.524;14.104;2022-09-09T10:34:52;100652.59;;;21.11;82.45
3122;BME280;1571;52.524;14.104;2022-09-09T10:37:35;100650.88;;;20.86;82.88
3122;BME280;1571;52.524;14.104;2022-09-09T10:40:20;100654.97;;;21.39;82.46
3122;BME280;1571;52.524;14.104;2022-09-09T10:42:56;100658.56;;;21.56;81.76
3122;BME280;1571;52.524;14.104;2022-09-09T10:45:32;100656.81;;;22.04;79.62
3122;BME280;1571;52.524;14.104;2022-09-09T10:48:18;100657.16;;;22.01;78.61
3122;BME280;1571;52.524;14.104;2022-09-09T10:50:59;100667.97;;;22.09;76.28
3122;BME280;1571;52.524;14.104;2022-09-09T10:53:36;100661.63;;;21.77;76.37
3122;BME280;1571;52.524;14.104;2022-09-09T10:56:08;100667.09;;;22.25;75.49
3122;BME280;1571;52.524;14.104;2022-09-09T10:58:42;100670.34;;;21.96;76.42
3122;BME280;1571;52.524;14.104;2022-09-09T11:01:20;100674.72;;;22.05;75.76
3122;BME280;1571;52.524;14.104;2022-09-09T11:03:54;100672.84;;;22.14;76.56
3122;BME280;1571;52.524;14.104;2022-09-09T11:06:29;100669.88;;;21.68;77.75
3122;BME280;1571;52.524;14.104;2022-09-09T11:09:02;100671.38;;;21.87;77.31
3122;BME280;1571;52.524;14.104;2022-09-09T11:11:34;100677.94;;;21.84;75.60
3122;BME280;1571;52.524;14.104;2022-09-09T11:14:11;100682.69;;;22.07;73.74
3122;BME280;1571;52.524;14.104;2022-09-09T11:16:45;100680.44;;;22.27;72.98
3122;BME280;1571;52.524;14.104;2022-09-09T11:19:21;100687.22;;;22.22;71.21
3122;BME280;1571;52.524;14.104;2022-09-09T11:21:53;100688.34;;;22.20;72.36
3122;BME280;1571;52.524;14.104;2022-09-09T11:24:26;100681.69;;;22.55;72.85
3122;BME280;1571;52.524;14.104;2022-09-09T11:27:00;100688.53;;;22.43;71.71
3122;BME280;1571;52.524;14.104;2022-09-09T11:30:02;100694.56;;;22.53;70.59
3122;BME280;1571;52.524;14.104;2022-09-09T11:35:52;100685.13;;;22.41;72.20
3122;BME280;1571;52.524;14.104;2022-09-09T11:38:26;100678.06;;;22.32;72.17
3122;BME280;1571;52.524;14.104;2022-09-09T11:40:57;100676.72;;;22.19;73.26
3122;BME280;1571;52.524;14.104;2022-09-09T11:43:29;100680.94;;;22.70;69.24
3122;BME280;1571;52.524;14.104;2022-09-09T11:46:01;100680.63;;;22.64;71.22
3122;BME280;1571;52.524;14.104;2022-09-09T11:48:33;100661.09;;;22.85;71.59
3122;BME280;1571;52.524;14.104;2022-09-09T11:51:05;100665.13;;;23.21;71.60
3122;BME280;1571;52.524;14.104;2022-09-09T11:53:48;100668.34;;;23.39;69.34
3122;BME280;1571;52.524;14.104;2022-09-09T11:56:26;100664.75;;;23.47;67.70
3122;BME280;1571;52.524;14.104;2022-09-09T11:58:58;100658.19;;;23.18;68.62
3122;BME280;1571;52.524;14.104;2022-09-09T12:01:34;100653.09;;;23.46;67.35
3122;BME280;1571;52.524;14.104;2022-09-09T12:04:28;100658.56;;;23.15;66.86
3122;BME280;1571;52.524;14.104;2022-09-09T12:07:03;100652.06;;;22.93;70.49
3122;BME280;1571;52.524;14.104;2022-09-09T12:09:47;100644.06;;;23.08;68.92
3122;BME280;1571;52.524;14.104;2022-09-09T12:12:32;100640.81;;;22.50;69.89
3122;BME280;1571;52.524;14.104;2022-09-09T12:15:20;100641.50;;;22.44;71.06
3122;BME280;1571;52.524;14.104;2022-09-09T12:17:51;100641.22;;;22.31;71.10
3122;BME280;1571;52.524;14.104;2022-09-09T12:20:22;100635.66;;;22.24;70.45
3122;BME280;1571;52.524;14.104;2022-09-09T12:22:58;100628.06;;;22.28;71.87
3122;BME280;1571;52.524;14.104;2022-09-09T12:25:35;100623.94;;;22.40;71.61
3122;BME280;1571;52.524;14.104;2022-09-09T12:28:09;100620.84;;;22.51;70.04
3122;BME280;1571;52.524;14.104;2022-09-09T12:30:46;100617.13;;;22.52;70.84
3122;BME280;1571;52.524;14.104;2022-09-09T12:33:19;100620.50;;;22.54;70.92
3122;BME280;1571;52.524;14.104;2022-09-09T12:35:53;100627.19;;;22.66;68.88
3122;BME280;1571;52.524;14.104;2022-09-09T12:38:27;100630.69;;;22.44;70.06
3122;BME280;1571;52.524;14.104;2022-09-09T12:40:59;100625.69;;;22.24;71.19
3122;BME280;1571;52.524;14.104;2022-09-09T12:43:28;100627.22;;;22.27;70.37
3122;BME280;1571;52.524;14.104;2022-09-09T12:45:59;100624.97;;;22.39;70.56
3122;BME280;1571;52.524;14.104;2022-09-09T12:48:33;100624.31;;;22.29;69.00
3122;BME280;1571;52.524;14.104;2022-09-09T12:51:05;100624.38;;;22.04;70.79
3122;BME280;1571;52.524;14.104;2022-09-09T12:53:36;100620.16;;;22.01;70.61
3122;BME280;1571;52.524;14.104;2022-09-09T12:56:07;100619.38;;;21.85;71.63
3122;BME280;1571;52.524;14.104;2022-09-09T12:58:36;100618.84;;;21.89;72.28
3122;BME280;1571;52.524;14.104;2022-09-09T13:01:05;100617.59;;;22.16;71.47
3122;BME280;1571;52.524;14.104;2022-09-09T13:03:42;100621.31;;;22.63;68.49
3122;BME280;1571;52.524;14.104;2022-09-09T13:06:20;100613.75;;;23.13;67.39
3122;BME280;1571;52.524;14.104;2022-09-09T13:08:56;100605.78;;;23.34;69.02
3122;BME280;1571;52.524;14.104;2022-09-09T13:11:27;100605.47;;;23.29;68.24
3122;BME280;1571;52.524;14.104;2022-09-09T13:13:57;100608.78;;;23.16;66.81
3122;BME280;1571;52.524;14.104;2022-09-09T13:16:28;100620.94;;;22.97;66.90
3122;BME280;1571;52.524;14.104;2022-09-09T13:19:02;100614.31;;;23.23;67.09
3122;BME280;1571;52.524;14.104;2022-09-09T13:21:36;100608.63;;;22.86;64.87
3122;BME280;1571;52.524;14.104;2022-09-09T13:24:06;100605.69;;;22.42;66.87
3122;BME280;1571;52.524;14.104;2022-09-09T13:26:54;100605.94;;;22.86;65.94
3122;BME280;1571;52.524;14.104;2022-09-09T13:29:23;100606.88;;;22.71;66.02
3122;BME280;1571;52.524;14.104;2022-09-09T13:31:52;100598.75;;;22.71;66.63
3122;BME280;1571;52.524;14.104;2022-09-09T13:34:28;100590.75;;;22.54;65.64
3122;BME280;1571;52.524;14.104;2022-09-09T13:36:59;100590.00;;;22.92;64.30